sensor_id;sensor_type;location;lat;lon;timestamp;pressure;altitude;pressure_sealevel;temperature;humidity
23321;BME280;33376;51.306;4.752;2024-01-25T00:00:39;102916.25;;;14.00;nan
23321;BME280;33376;51.306;4.752;2024-01-25T00:03:05;102909.25;;;13.73;nan
23321;BME280;33376;51.306;4.752;2024-01-25T00:05:30;102919.97;;;13.71;nan
23321;BME280;33376;51.306;4.752;2024-01-25T00:07:56;102915.28;;;13.78;nan
23321;BME280;33376;51.306;4.752;2024-01-25T00:10:21;102989.56;;;13.08;nan
23321;BME280;33376;51.306;4.752;2024-01-25T00:12:46;102943.38;;;13.88;nan
23321;BME280;33376;51.306;4.752;2024-01-25T00:15:12;102934.13;;;13.73;nan
23321;BME280;33376;51.306;4.752;2024-01-25T00:17:37;102965.44;;;13.41;nan
23321;BME280;33376;51.306;4.752;2024-01-25T00:20:03;102938.78;;;13.67;nan
23321;BME280;33376;51.306;4.752;2024-01-25T00:22:29;102942.13;;;13.73;nan
23321;BME280;33376;51.306;4.752;2024-01-25T00:24:54;102967.19;;;13.42;nan
23321;BME280;33376;51.306;4.752;2024-01-25T00:27:19;102965.59;;;13.36;nan
23321;BME280;33376;51.306;4.752;2024-01-25T00:29:45;102955.75;;;13.38;nan
23321;BME280;33376;51.306;4.752;2024-01-25T00:32:10;102969.22;;;13.06;nan
23321;BME280;33376;51.306;4.752;2024-01-25T00:34:36;102936.63;;;13.26;nan
23321;BME280;33376;51.306;4.752;2024-01-25T00:37:01;102937.75;;;13.18;nan
23321;BME280;33376;51.306;4.752;2024-01-25T00:39:27;102968.69;;;12.64;nan
23321;BME280;33376;51.306;4.752;2024-01-25T00:41:52;102949.44;;;13.14;nan
23321;BME280;33376;51.306;4.752;2024-01-25T00:44:22;102968.38;;;12.75;nan
23321;BME280;33376;51.306;4.752;2024-01-25T00:46:47;102976.66;;;12.95;nan
23321;BME280;33376;51.306;4.752;2024-01-25T00:49:13;102939.03;;;13.05;nan
23321;BME280;33376;51.306;4.752;2024-01-25T00:51:38;102952.34;;;12.78;nan
23321;BME280;33376;51.306;4.752;2024-01-25T00:54:09;102948.13;;;12.98;nan
23321;BME280;33376;51.306;4.752;2024-01-25T00:56:34;102979.44;;;12.61;nan
23321;BME280;33376;51.306;4.752;2024-01-25T00:59:00;102982.56;;;12.45;nan
23321;BME280;33376;51.306;4.752;2024-01-25T01:01:25;102969.03;;;12.54;nan
23321;BME280;33376;51.306;4.752;2024-01-25T01:03:51;102994.78;;;12.21;nan
23321;BME280;33376;51.306;4.752;2024-01-25T01:06:19;102962.72;;;12.56;nan
23321;BME280;33376;51.306;4.752;2024-01-25T01:08:44;102948.28;;;12.65;nan
23321;BME280;33376;51.306;4.752;2024-01-25T01:11:09;102959.31;;;12.51;nan
23321;BME280;33376;51.306;4.752;2024-01-25T01:13:35;102955.16;;;12.72;nan
23321;BME280;33376;51.306;4.752;2024-01-25T01:16:00;102926.56;;;12.78;nan
23321;BME280;33376;51.306;4.752;2024-01-25T01:18:25;102931.38;;;12.66;nan
23321;BME280;33376;51.306;4.752;2024-01-25T01:20:50;102985.41;;;11.73;nan
23321;BME280;33376;51.306;4.752;2024-01-25T01:23:16;103038.81;;;11.64;nan
23321;BME280;33376;51.306;4.752;2024-01-25T01:25:41;103015.09;;;11.92;nan
23321;BME280;33376;51.306;4.752;2024-01-25T01:28:06;102991.19;;;12.24;nan
23321;BME280;33376;51.306;4.752;2024-01-25T01:30:31;102973.16;;;12.33;nan
23321;BME280;33376;51.306;4.752;2024-01-25T01:32:57;102982.59;;;12.13;nan
23321;BME280;33376;51.306;4.752;2024-01-25T01:35:22;103003.84;;;11.81;nan
23321;BME280;33376;51.306;4.752;2024-01-25T01:37:47;103027.47;;;11.93;nan
23321;BME280;33376;51.306;4.752;2024-01-25T01:40:13;103044.97;;;11.66;nan
23321;BME280;33376;51.306;4.752;2024-01-25T01:42:38;103019.56;;;11.90;nan
23321;BME280;33376;51.306;4.752;2024-01-25T01:45:04;103041.59;;;11.58;nan
23321;BME280;33376;51.306;4.752;2024-01-25T01:47:32;103059.31;;;11.57;nan
23321;BME280;33376;51.306;4.752;2024-01-25T01:49:57;103045.31;;;11.49;nan
23321;BME280;33376;51.306;4.752;2024-01-25T01:52:22;103055.06;;;11.49;nan
23321;BME280;33376;51.306;4.752;2024-01-25T01:54:48;103062.88;;;11.56;nan
23321;BME280;33376;51.306;4.752;2024-01-25T01:57:13;103048.06;;;11.46;nan
23321;BME280;33376;51.306;4.752;2024-01-25T01:59:38;103055.31;;;11.38;nan
23321;BME280;33376;51.306;4.752;2024-01-25T02:02:04;103064.44;;;11.27;nan
23321;BME280;33376;51.306;4.752;2024-01-25T02:04:29;103040.06;;;11.48;nan
23321;BME280;33376;51.306;4.752;2024-01-25T02:06:55;103035.53;;;11.51;nan
23321;BME280;33376;51.306;4.752;2024-01-25T02:09:21;103039.53;;;11.70;nan
23321;BME280;33376;51.306;4.752;2024-01-25T02:11:46;103000.34;;;11.78;nan
23321;BME280;33376;51.306;4.752;2024-01-25T02:14:12;102990.78;;;11.71;nan
23321;BME280;33376;51.306;4.752;2024-01-25T02:16:38;103014.50;;;11.81;nan
23321;BME280;33376;51.306;4.752;2024-01-25T02:19:03;103033.69;;;11.55;nan
23321;BME280;33376;51.306;4.752;2024-01-25T02:21:28;102994.72;;;11.91;nan
23321;BME280;33376;51.306;4.752;2024-01-25T02:23:54;103013.88;;;11.31;nan
23321;BME280;33376;51.306;4.752;2024-01-25T02:26:19;103051.09;;;11.30;nan
23321;BME280;33376;51.306;4.752;2024-01-25T02:28:44;103016.81;;;11.56;nan
23321;BME280;33376;51.306;4.752;2024-01-25T02:31:10;103020.13;;;11.67;nan
23321;BME280;33376;51.306;4.752;2024-01-25T02:33:35;102997.19;;;11.64;nan
23321;BME280;33376;51.306;4.752;2024-01-25T02:36:00;102982.31;;;11.54;nan
23321;BME280;33376;51.306;4.752;2024-01-25T02:38:25;102994.72;;;11.54;nan
23321;BME280;33376;51.306;4.752;2024-01-25T02:40:51;103025.25;;;11.36;nan
23321;BME280;33376;51.306;4.752;2024-01-25T02:43:18;103000.66;;;11.66;nan
23321;BME280;33376;51.306;4.752;2024-01-25T02:45:44;103013.88;;;11.68;nan
23321;BME280;33376;51.306;4.752;2024-01-25T02:48:09;102985.94;;;11.52;nan
23321;BME280;33376;51.306;4.752;2024-01-25T02:50:34;103000.28;;;11.45;nan
23321;BME280;33376;51.306;4.752;2024-01-25T02:52:59;102977.34;;;11.41;nan
23321;BME280;33376;51.306;4.752;2024-01-25T02:55:25;102979.84;;;11.10;nan
23321;BME280;33376;51.306;4.752;2024-01-25T02:57:50;103041.63;;;10.77;nan
23321;BME280;33376;51.306;4.752;2024-01-25T03:00:15;103005.06;;;10.91;nan
23321;BME280;33376;51.306;4.752;2024-01-25T03:02:40;103022.03;;;10.84;nan
23321;BME280;33376;51.306;4.752;2024-01-25T03:05:06;103027.59;;;10.72;nan
23321;BME280;33376;51.306;4.752;2024-01-25T03:07:31;103054.66;;;10.89;nan
23321;BME280;33376;51.306;4.752;2024-01-25T03:09:56;103081.19;;;10.44;nan
23321;BME280;33376;51.306;4.752;2024-01-25T03:12:22;103109.88;;;10.69;nan
23321;BME280;33376;51.306;4.752;2024-01-25T03:14:48;103036.81;;;10.52;nan
23321;BME280;33376;51.306;4.752;2024-01-25T03:17:13;103049.50;;;10.82;nan
23321;BME280;33376;51.306;4.752;2024-01-25T03:19:38;103052.44;;;11.09;nan
23321;BME280;33376;51.306;4.752;2024-01-25T03:22:03;103031.81;;;11.20;nan
23321;BME280;33376;51.306;4.752;2024-01-25T03:24:29;103001.22;;;11.04;nan
23321;BME280;33376;51.306;4.752;2024-01-25T03:26:54;103026.34;;;10.90;nan
23321;BME280;33376;51.306;4.752;2024-01-25T03:29:19;103034.63;;;10.73;nan
23321;BME280;33376;51.306;4.752;2024-01-25T03:31:45;103051.72;;;10.59;nan
23321;BME280;33376;51.306;4.752;2024-01-25T03:34:10;103028.84;;;10.55;nan
23321;BME280;33376;51.306;4.752;2024-01-25T03:36:35;103023.44;;;10.59;nan
23321;BME280;33376;51.306;4.752;2024-01-25T03:39:01;103037.88;;;10.45;nan
23321;BME280;33376;51.306;4.752;2024-01-25T03:41:28;103008.53;;;10.52;nan
23321;BME280;33376;51.306;4.752;2024-01-25T03:43:54;103029.22;;;10.35;nan
23321;BME280;33376;51.306;4.752;2024-01-25T03:46:19;103066.16;;;10.44;nan
23321;BME280;33376;51.306;4.752;2024-01-25T03:48:44;103055.41;;;10.52;nan
23321;BME280;33376;51.306;4.752;2024-01-25T03:51:10;103028.13;;;10.45;nan
23321;BME280;33376;51.306;4.752;2024-01-25T03:53:35;103007.31;;;10.68;nan
23321;BME280;33376;51.306;4.752;2024-01-25T03:56:00;103014.50;;;10.19;nan
23321;BME280;33376;51.306;4.752;2024-01-25T03:58:26;103050.16;;;10.00;nan
23321;BME280;33376;51.306;4.752;2024-01-25T04:00:51;103061.63;;;9.99;nan
23321;BME280;33376;51.306;4.752;2024-01-25T04:03:16;103056.09;;;10.15;nan
23321;BME280;33376;51.306;4.752;2024-01-25T04:05:42;103057.56;;;10.31;nan
23321;BME280;33376;51.306;4.752;2024-01-25T04:08:07;103049.38;;;10.44;nan
23321;BME280;33376;51.306;4.752;2024-01-25T04:10:33;103037.09;;;10.40;nan
23321;BME280;33376;51.306;4.752;2024-01-25T04:12:58;103108.38;;;10.04;nan
23321;BME280;33376;51.306;4.752;2024-01-25T04:15:25;103098.41;;;10.20;nan
23321;BME280;33376;51.306;4.752;2024-01-25T04:17:50;103065.28;;;10.44;nan
23321;BME280;33376;51.306;4.752;2024-01-25T04:20:16;103031.34;;;10.15;nan
23321;BME280;33376;51.306;4.752;2024-01-25T04:22:41;103022.81;;;10.47;nan
23321;BME280;33376;51.306;4.752;2024-01-25T04:25:06;103051.56;;;10.22;nan
23321;BME280;33376;51.306;4.752;2024-01-25T04:27:32;103012.25;;;10.42;nan
23321;BME280;33376;51.306;4.752;2024-01-25T04:29:57;103044.25;;;9.84;nan
23321;BME280;33376;51.306;4.752;2024-01-25T04:32:22;103080.44;;;9.26;nan
23321;BME280;33376;51.306;4.752;2024-01-25T04:34:48;103070.25;;;9.58;nan
23321;BME280;33376;51.306;4.752;2024-01-25T04:37:13;103060.69;;;10.03;nan
23321;BME280;33376;51.306;4.752;2024-01-25T04:39:40;103028.63;;;10.19;nan
23321;BME280;33376;51.306;4.752;2024-01-25T04:42:08;103041.16;;;9.57;nan
23321;BME280;33376;51.306;4.752;2024-01-25T04:44:35;103056.59;;;9.28;nan
23321;BME280;33376;51.306;4.752;2024-01-25T04:47:00;103047.84;;;9.21;nan
23321;BME280;33376;51.306;4.752;2024-01-25T04:49:26;103016.44;;;9.56;nan
23321;BME280;33376;51.306;4.752;2024-01-25T04:51:51;103160.72;;;8.48;nan
23321;BME280;33376;51.306;4.752;2024-01-25T04:54:17;103191.28;;;8.79;nan
23321;BME280;33376;51.306;4.752;2024-01-25T04:56:43;103152.88;;;9.18;nan
23321;BME280;33376;51.306;4.752;2024-01-25T04:59:08;103106.38;;;8.99;nan
23321;BME280;33376;51.306;4.752;2024-01-25T05:01:33;103102.59;;;9.18;nan
23321;BME280;33376;51.306;4.752;2024-01-25T05:03:59;103087.56;;;9.21;nan
23321;BME280;33376;51.306;4.752;2024-01-25T05:06:24;103160.63;;;8.55;nan
23321;BME280;33376;51.306;4.752;2024-01-25T05:08:50;103172.84;;;8.68;nan
23321;BME280;33376;51.306;4.752;2024-01-25T05:11:15;103139.69;;;9.16;nan
23321;BME280;33376;51.306;4.752;2024-01-25T05:13:40;103106.50;;;8.89;nan
23321;BME280;33376;51.306;4.752;2024-01-25T05:16:05;103116.34;;;8.75;nan
23321;BME280;33376;51.306;4.752;2024-01-25T05:18:31;103092.72;;;9.32;nan
23321;BME280;33376;51.306;4.752;2024-01-25T05:20:56;103172.41;;;8.18;nan
23321;BME280;33376;51.306;4.752;2024-01-25T05:23:22;103221.09;;;7.75;nan
23321;BME280;33376;51.306;4.752;2024-01-25T05:25:48;103265.13;;;7.70;nan
23321;BME280;33376;51.306;4.752;2024-01-25T05:28:13;103256.03;;;8.33;nan
23321;BME280;33376;51.306;4.752;2024-01-25T05:30:38;103167.59;;;8.64;nan
23321;BME280;33376;51.306;4.752;2024-01-25T05:33:04;103177.50;;;8.44;nan
23321;BME280;33376;51.306;4.752;2024-01-25T05:35:29;103125.91;;;8.85;nan
23321;BME280;33376;51.306;4.752;2024-01-25T05:37:54;103105.53;;;8.93;nan
23321;BME280;33376;51.306;4.752;2024-01-25T05:40:20;103180.31;;;8.20;nan
23321;BME280;33376;51.306;4.752;2024-01-25T05:42:45;103246.75;;;7.43;nan
23321;BME280;33376;51.306;4.752;2024-01-25T05:45:11;103194.09;;;8.61;nan
23321;BME280;33376;51.306;4.752;2024-01-25T05:47:36;103161.53;;;8.54;nan
23321;BME280;33376;51.306;4.752;2024-01-25T05:50:01;103155.50;;;8.39;nan
23321;BME280;33376;51.306;4.752;2024-01-25T05:52:27;103140.34;;;8.57;nan
23321;BME280;33376;51.306;4.752;2024-01-25T05:54:52;103120.59;;;8.92;nan
23321;BME280;33376;51.306;4.752;2024-01-25T05:57:18;103186.44;;;8.22;nan
23321;BME280;33376;51.306;4.752;2024-01-25T05:59:44;103202.56;;;7.84;nan
23321;BME280;33376;51.306;4.752;2024-01-25T06:02:09;103209.19;;;8.48;nan
23321;BME280;33376;51.306;4.752;2024-01-25T06:04:34;103116.22;;;8.87;nan
23321;BME280;33376;51.306;4.752;2024-01-25T06:07:00;103083.09;;;9.25;nan
23321;BME280;33376;51.306;4.752;2024-01-25T06:09:25;103085.56;;;8.68;nan
23321;BME280;33376;51.306;4.752;2024-01-25T06:11:50;103147.56;;;8.42;nan
23321;BME280;33376;51.306;4.752;2024-01-25T06:14:16;103197.28;;;7.84;nan
23321;BME280;33376;51.306;4.752;2024-01-25T06:16:41;103195.06;;;8.49;nan
23321;BME280;33376;51.306;4.752;2024-01-25T06:19:06;103150.31;;;8.25;nan
23321;BME280;33376;51.306;4.752;2024-01-25T06:21:32;103143.34;;;8.11;nan
23321;BME280;33376;51.306;4.752;2024-01-25T06:24:00;103128.41;;;8.10;nan
23321;BME280;33376;51.306;4.752;2024-01-25T06:26:25;103123.97;;;8.15;nan
23321;BME280;33376;51.306;4.752;2024-01-25T06:28:51;103130.13;;;8.14;nan
23321;BME280;33376;51.306;4.752;2024-01-25T06:31:16;103138.78;;;8.37;nan
23321;BME280;33376;51.306;4.752;2024-01-25T06:33:41;103176.88;;;8.03;nan
23321;BME280;33376;51.306;4.752;2024-01-25T06:36:06;103175.91;;;8.17;nan
23321;BME280;33376;51.306;4.752;2024-01-25T06:38:32;103137.94;;;8.32;nan
23321;BME280;33376;51.306;4.752;2024-01-25T06:40:57;103126.53;;;8.22;nan
23321;BME280;33376;51.306;4.752;2024-01-25T06:43:22;103106.16;;;8.38;nan
23321;BME280;33376;51.306;4.752;2024-01-25T06:45:48;103103.41;;;8.51;nan
23321;BME280;33376;51.306;4.752;2024-01-25T06:48:13;103106.56;;;8.85;nan
23321;BME280;33376;51.306;4.752;2024-01-25T06:50:38;103109.25;;;8.80;nan
23321;BME280;33376;51.306;4.752;2024-01-25T06:53:04;103137.00;;;8.39;nan
23321;BME280;33376;51.306;4.752;2024-01-25T06:55:29;103088.97;;;8.78;nan
23321;BME280;33376;51.306;4.752;2024-01-25T06:57:54;103101.66;;;8.50;nan
23321;BME280;33376;51.306;4.752;2024-01-25T07:00:19;103089.06;;;8.72;nan
23321;BME280;33376;51.306;4.752;2024-01-25T07:02:46;103122.16;;;8.20;nan
23321;BME280;33376;51.306;4.752;2024-01-25T07:05:11;103128.00;;;8.59;nan
23321;BME280;33376;51.306;4.752;2024-01-25T07:07:36;103137.72;;;8.54;nan
23321;BME280;33376;51.306;4.752;2024-01-25T07:10:04;103149.34;;;8.38;nan
23321;BME280;33376;51.306;4.752;2024-01-25T07:12:29;103215.84;;;7.68;nan
23321;BME280;33376;51.306;4.752;2024-01-25T07:14:55;103227.19;;;7.89;nan
23321;BME280;33376;51.306;4.752;2024-01-25T07:17:20;103205.78;;;8.36;nan
23321;BME280;33376;51.306;4.752;2024-01-25T07:19:45;103164.78;;;8.82;nan
23321;BME280;33376;51.306;4.752;2024-01-25T07:22:11;103155.25;;;8.67;nan
23321;BME280;33376;51.306;4.752;2024-01-25T07:24:39;103251.00;;;7.80;nan
23321;BME280;33376;51.306;4.752;2024-01-25T07:27:04;103268.56;;;7.87;nan
23321;BME280;33376;51.306;4.752;2024-01-25T07:29:29;103294.22;;;7.58;nan
23321;BME280;33376;51.306;4.752;2024-01-25T07:31:54;103287.00;;;8.02;nan
23321;BME280;33376;51.306;4.752;2024-01-25T07:34:20;103235.13;;;9.01;nan
23321;BME280;33376;51.306;4.752;2024-01-25T07:36:45;103152.56;;;9.43;nan
23321;BME280;33376;51.306;4.752;2024-01-25T07:39:10;103127.47;;;9.71;nan
23321;BME280;33376;51.306;4.752;2024-01-25T07:41:36;103135.91;;;9.34;nan
23321;BME280;33376;51.306;4.752;2024-01-25T07:44:02;103143.22;;;9.79;nan
23321;BME280;33376;51.306;4.752;2024-01-25T07:46:27;103220.38;;;8.77;nan
23321;BME280;33376;51.306;4.752;2024-01-25T07:48:52;103205.75;;;9.27;nan
23321;BME280;33376;51.306;4.752;2024-01-25T07:51:17;103158.09;;;9.90;nan
23321;BME280;33376;51.306;4.752;2024-01-25T07:53:43;103103.72;;;9.62;nan
23321;BME280;33376;51.306;4.752;2024-01-25T07:56:08;103050.28;;;9.92;nan
23321;BME280;33376;51.306;4.752;2024-01-25T07:58:35;103093.78;;;9.19;nan
23321;BME280;33376;51.306;4.752;2024-01-25T08:01:02;103075.34;;;9.72;nan
23321;BME280;33376;51.306;4.752;2024-01-25T08:03:29;103057.63;;;9.75;nan
23321;BME280;33376;51.306;4.752;2024-01-25T08:05:54;103091.19;;;9.76;nan
23321;BME280;33376;51.306;4.752;2024-01-25T08:08:19;103110.00;;;10.16;nan
23321;BME280;33376;51.306;4.752;2024-01-25T08:10:44;103064.00;;;10.17;nan
23321;BME280;33376;51.306;4.752;2024-01-25T08:13:10;103062.44;;;10.04;nan
23321;BME280;33376;51.306;4.752;2024-01-25T08:15:36;103109.94;;;10.19;nan
23321;BME280;33376;51.306;4.752;2024-01-25T08:18:02;103128.97;;;9.87;nan
23321;BME280;33376;51.306;4.752;2024-01-25T08:20:27;103123.44;;;10.01;nan
23321;BME280;33376;51.306;4.752;2024-01-25T08:22:53;103152.34;;;10.19;nan
23321;BME280;33376;51.306;4.752;2024-01-25T08:25:18;103158.03;;;9.93;nan
23321;BME280;33376;51.306;4.752;2024-01-25T08:27:45;103129.78;;;9.92;nan
23321;BME280;33376;51.306;4.752;2024-01-25T08:30:10;103108.69;;;10.40;nan
23321;BME280;33376;51.306;4.752;2024-01-25T08:32:35;103132.03;;;10.18;nan
23321;BME280;33376;51.306;4.752;2024-01-25T08:35:01;103148.09;;;10.09;nan
23321;BME280;33376;51.306;4.752;2024-01-25T08:37:26;103159.91;;;9.87;nan
23321;BME280;33376;51.306;4.752;2024-01-25T08:39:51;103209.97;;;9.41;nan
23321;BME280;33376;51.306;4.752;2024-01-25T08:42:17;103205.38;;;9.55;nan
23321;BME280;33376;51.306;4.752;2024-01-25T08:44:42;103158.84;;;10.52;nan
23321;BME280;33376;51.306;4.752;2024-01-25T08:47:14;103084.38;;;11.06;nan
23321;BME280;33376;51.306;4.752;2024-01-25T08:49:39;103097.22;;;10.85;nan
23321;BME280;33376;51.306;4.752;2024-01-25T08:52:04;103077.13;;;10.72;nan
23321;BME280;33376;51.306;4.752;2024-01-25T08:54:30;103123.19;;;10.19;nan
23321;BME280;33376;51.306;4.752;2024-01-25T08:56:56;103104.88;;;10.54;nan
23321;BME280;33376;51.306;4.752;2024-01-25T08:59:21;103064.13;;;11.02;nan
23321;BME280;33376;51.306;4.752;2024-01-25T09:01:46;103066.94;;;11.34;nan
23321;BME280;33376;51.306;4.752;2024-01-25T09:04:12;103158.47;;;10.24;nan
23321;BME280;33376;51.306;4.752;2024-01-25T09:06:38;103221.75;;;10.44;nan
23321;BME280;33376;51.306;4.752;2024-01-25T09:09:03;103263.34;;;10.43;nan
23321;BME280;33376;51.306;4.752;2024-01-25T09:11:28;103279.13;;;10.52;nan
23321;BME280;33376;51.306;4.752;2024-01-25T09:13:54;103234.13;;;10.95;nan
23321;BME280;33376;51.306;4.752;2024-01-25T09:16:19;103185.75;;;11.26;nan
23321;BME280;33376;51.306;4.752;2024-01-25T09:18:45;103134.59;;;11.96;nan
23321;BME280;33376;51.306;4.752;2024-01-25T09:21:10;103132.34;;;11.79;nan
23321;BME280;33376;51.306;4.752;2024-01-25T09:23:35;103153.16;;;11.59;nan
23321;BME280;33376;51.306;4.752;2024-01-25T09:26:01;103154.72;;;11.71;nan
23321;BME280;33376;51.306;4.752;2024-01-25T09:28:26;103192.78;;;11.29;nan
23321;BME280;33376;51.306;4.752;2024-01-25T09:30:51;103151.44;;;11.97;nan
23321;BME280;33376;51.306;4.752;2024-01-25T09:33:17;103165.97;;;11.82;nan
23321;BME280;33376;51.306;4.752;2024-01-25T09:35:43;103181.84;;;12.22;nan
23321;BME280;33376;51.306;4.752;2024-01-25T09:38:11;103223.16;;;11.57;nan
23321;BME280;33376;51.306;4.752;2024-01-25T09:40:37;103269.97;;;11.65;nan
23321;BME280;33376;51.306;4.752;2024-01-25T09:43:02;103251.09;;;11.77;nan
23321;BME280;33376;51.306;4.752;2024-01-25T09:45:28;103243.34;;;11.68;nan
23321;BME280;33376;51.306;4.752;2024-01-25T09:47:55;103190.25;;;12.74;nan
23321;BME280;33376;51.306;4.752;2024-01-25T09:50:20;103158.94;;;12.50;nan
23321;BME280;33376;51.306;4.752;2024-01-25T09:52:47;103148.22;;;12.53;nan
23321;BME280;33376;51.306;4.752;2024-01-25T09:55:15;103122.53;;;12.52;nan
23321;BME280;33376;51.306;4.752;2024-01-25T09:57:45;103127.53;;;12.30;nan
23321;BME280;33376;51.306;4.752;2024-01-25T10:00:11;103159.44;;;12.32;nan
23321;BME280;33376;51.306;4.752;2024-01-25T10:02:37;103073.31;;;13.27;nan
23321;BME280;33376;51.306;4.752;2024-01-25T10:05:03;103073.09;;;13.35;nan
23321;BME280;33376;51.306;4.752;2024-01-25T10:07:35;103071.78;;;13.20;nan
23321;BME280;33376;51.306;4.752;2024-01-25T10:10:01;103090.66;;;13.13;nan
23321;BME280;33376;51.306;4.752;2024-01-25T10:12:26;103111.19;;;12.77;nan
23321;BME280;33376;51.306;4.752;2024-01-25T10:14:51;103085.44;;;13.08;nan
23321;BME280;33376;51.306;4.752;2024-01-25T10:17:17;103033.56;;;13.77;nan
23321;BME280;33376;51.306;4.752;2024-01-25T10:19:43;103103.50;;;11.61;nan
23321;BME280;33376;51.306;4.752;2024-01-25T10:22:09;103115.09;;;12.96;nan
23321;BME280;33376;51.306;4.752;2024-01-25T10:24:37;103309.25;;;9.80;nan
23321;BME280;33376;51.306;4.752;2024-01-25T10:27:02;103299.91;;;11.29;nan
23321;BME280;33376;51.306;4.752;2024-01-25T10:29:28;103298.88;;;10.88;nan
23321;BME280;33376;51.306;4.752;2024-01-25T10:31:53;103290.75;;;11.90;nan
23321;BME280;33376;51.306;4.752;2024-01-25T10:34:18;103230.63;;;10.94;nan
23321;BME280;33376;51.306;4.752;2024-01-25T10:36:44;103278.56;;;10.30;nan
23321;BME280;33376;51.306;4.752;2024-01-25T10:39:09;103262.31;;;12.31;nan
23321;BME280;33376;51.306;4.752;2024-01-25T10:41:36;103125.84;;;13.24;nan
23321;BME280;33376;51.306;4.752;2024-01-25T10:44:01;103217.25;;;12.60;nan
23321;BME280;33376;51.306;4.752;2024-01-25T10:46:27;103134.19;;;12.80;nan
23321;BME280;33376;51.306;4.752;2024-01-25T10:48:53;103154.09;;;12.67;nan
23321;BME280;33376;51.306;4.752;2024-01-25T10:51:21;103181.47;;;12.37;nan
23321;BME280;33376;51.306;4.752;2024-01-25T10:53:47;103129.13;;;12.71;nan
23321;BME280;33376;51.306;4.752;2024-01-25T10:56:12;103103.47;;;13.30;nan
23321;BME280;33376;51.306;4.752;2024-01-25T10:58:40;103080.06;;;13.10;nan
23321;BME280;33376;51.306;4.752;2024-01-25T11:01:08;103055.84;;;13.19;nan
23321;BME280;33376;51.306;4.752;2024-01-25T11:03:35;103107.03;;;12.67;nan
23321;BME280;33376;51.306;4.752;2024-01-25T11:06:07;103249.34;;;10.33;nan
23321;BME280;33376;51.306;4.752;2024-01-25T11:08:34;103111.31;;;13.05;nan
23321;BME280;33376;51.306;4.752;2024-01-25T11:11:02;103051.34;;;13.21;nan
23321;BME280;33376;51.306;4.752;2024-01-25T11:13:28;103067.94;;;13.00;nan
23321;BME280;33376;51.306;4.752;2024-01-25T11:15:54;103067.19;;;12.64;nan
23321;BME280;33376;51.306;4.752;2024-01-25T11:18:20;103105.34;;;12.31;nan
23321;BME280;33376;51.306;4.752;2024-01-25T11:20:46;103082.59;;;12.84;nan
23321;BME280;33376;51.306;4.752;2024-01-25T11:23:13;103092.47;;;12.48;nan
23321;BME280;33376;51.306;4.752;2024-01-25T11:25:39;103102.00;;;12.23;nan
23321;BME280;33376;51.306;4.752;2024-01-25T11:28:05;103196.56;;;12.00;nan
23321;BME280;33376;51.306;4.752;2024-01-25T11:30:31;103140.22;;;12.86;nan
23321;BME280;33376;51.306;4.752;2024-01-25T11:32:57;103027.44;;;13.73;nan
23321;BME280;33376;51.306;4.752;2024-01-25T11:35:22;103055.09;;;12.53;nan
23321;BME280;33376;51.306;4.752;2024-01-25T11:37:48;103124.47;;;12.12;nan
23321;BME280;33376;51.306;4.752;2024-01-25T11:40:14;103105.41;;;12.92;nan
23321;BME280;33376;51.306;4.752;2024-01-25T11:42:39;103062.09;;;12.57;nan
23321;BME280;33376;51.306;4.752;2024-01-25T11:45:05;103113.03;;;12.42;nan
23321;BME280;33376;51.306;4.752;2024-01-25T11:47:32;103058.69;;;12.82;nan
23321;BME280;33376;51.306;4.752;2024-01-25T11:49:58;103083.09;;;12.66;nan
23321;BME280;33376;51.306;4.752;2024-01-25T11:52:23;103107.41;;;12.20;nan
23321;BME280;33376;51.306;4.752;2024-01-25T11:54:51;103089.22;;;12.37;nan
23321;BME280;33376;51.306;4.752;2024-01-25T11:57:16;103088.72;;;12.23;nan
23321;BME280;33376;51.306;4.752;2024-01-25T11:59:42;103078.19;;;12.52;nan
23321;BME280;33376;51.306;4.752;2024-01-25T12:02:10;103071.34;;;12.42;nan
23321;BME280;33376;51.306;4.752;2024-01-25T12:04:35;103116.63;;;11.70;nan
23321;BME280;33376;51.306;4.752;2024-01-25T12:07:01;103140.69;;;11.64;nan
23321;BME280;33376;51.306;4.752;2024-01-25T12:09:26;103122.25;;;11.54;nan
23321;BME280;33376;51.306;4.752;2024-01-25T12:11:51;103099.25;;;11.93;nan
23321;BME280;33376;51.306;4.752;2024-01-25T12:14:17;103073.06;;;12.11;nan
23321;BME280;33376;51.306;4.752;2024-01-25T12:16:42;102993.06;;;12.80;nan
23321;BME280;33376;51.306;4.752;2024-01-25T12:19:07;103038.81;;;12.33;nan
23321;BME280;33376;51.306;4.752;2024-01-25T12:21:33;103023.44;;;12.10;nan
23321;BME280;33376;51.306;4.752;2024-01-25T12:23:59;102976.84;;;12.89;nan
23321;BME280;33376;51.306;4.752;2024-01-25T12:26:24;102994.97;;;12.76;nan
23321;BME280;33376;51.306;4.752;2024-01-25T12:28:49;102975.50;;;13.05;nan
23321;BME280;33376;51.306;4.752;2024-01-25T12:31:14;102963.56;;;12.87;nan
23321;BME280;33376;51.306;4.752;2024-01-25T12:33:41;102969.19;;;12.48;nan
23321;BME280;33376;51.306;4.752;2024-01-25T12:36:06;102970.22;;;12.73;nan
23321;BME280;33376;51.306;4.752;2024-01-25T12:38:31;103150.91;;;9.97;nan
23321;BME280;33376;51.306;4.752;2024-01-25T12:40:58;103188.41;;;9.70;nan
23321;BME280;33376;51.306;4.752;2024-01-25T12:43:24;103194.00;;;9.47;nan
23321;BME280;33376;51.306;4.752;2024-01-25T12:45:50;103195.13;;;9.28;nan
23321;BME280;33376;51.306;4.752;2024-01-25T12:48:15;103162.16;;;11.11;nan
23321;BME280;33376;51.306;4.752;2024-01-25T12:50:41;103046.06;;;12.58;nan
23321;BME280;33376;51.306;4.752;2024-01-25T12:53:06;102947.81;;;13.09;nan
23321;BME280;33376;51.306;4.752;2024-01-25T12:55:32;102953.09;;;13.10;nan
23321;BME280;33376;51.306;4.752;2024-01-25T12:57:58;102958.66;;;12.74;nan
23321;BME280;33376;51.306;4.752;2024-01-25T13:00:23;102983.50;;;12.44;nan
23321;BME280;33376;51.306;4.752;2024-01-25T13:02:49;102964.66;;;12.51;nan
23321;BME280;33376;51.306;4.752;2024-01-25T13:05:14;102955.69;;;12.84;nan